Time;durP1;ratioP1;P1;durP2;ratioP2;P2;SDS_P1;SDS_P2;PMS_P1;PMS_P2;Temp;Humidity;BMP_temperature;BMP_pressure;BME280_temperature;BME280_humidity;BME280_pressure;Samples;Min_cycle;Max_cycle;Signal;HPM_P1;HPM_P2
2023/07/16 00:00:10;;;;;;;11.43;6.07;;;20.50;99.90;;;;;;4988724;28;20022;-83
2023/07/16 00:02:37;;;;;;;9.82;6.65;;;20.40;99.90;;;;;;4987090;28;20041;-84
2023/07/16 00:05:03;;;;;;;11.38;6.38;;;20.40;99.90;;;;;;4988776;28;20030;-83
2023/07/16 00:07:29;;;;;;;14.20;6.50;;;20.30;99.90;;;;;;4985790;28;20030;-84
2023/07/16 00:09:55;;;;;;;10.02;6.22;;;20.30;99.90;;;;;;4988384;28;20045;-83
2023/07/16 00:12:20;;;;;;;9.55;5.68;;;20.30;99.90;;;;;;4987066;28;20068;-83
2023/07/16 00:14:47;;;;;;;8.52;5.97;;;20.20;99.90;;;;;;4987852;28;20556;-83
2023/07/16 00:17:12;;;;;;;10.65;6.30;;;20.30;99.90;;;;;;4988814;28;20042;-84
2023/07/16 00:19:38;;;;;;;10.32;6.53;;;20.20;99.90;;;;;;4987242;28;20036;-84
2023/07/16 00:22:03;;;;;;;10.48;6.75;;;20.20;99.90;;;;;;4987037;28;20049;-84
2023/07/16 00:24:29;;;;;;;10.65;6.45;;;20.20;99.90;;;;;;4985639;28;20165;-84
2023/07/16 00:26:55;;;;;;;8.65;6.57;;;20.20;99.90;;;;;;4986620;28;20061;-84
2023/07/16 00:29:20;;;;;;;9.43;5.82;;;20.20;99.90;;;;;;4988034;28;20026;-84
2023/07/16 00:31:46;;;;;;;11.18;6.80;;;20.20;99.90;;;;;;4985902;28;21374;-83
2023/07/16 00:34:12;;;;;;;13.15;6.57;;;20.20;99.90;;;;;;4987449;28;20092;-83
2023/07/16 00:36:38;;;;;;;8.82;6.18;;;20.20;99.90;;;;;;4985828;28;20026;-84
2023/07/16 00:39:04;;;;;;;8.93;6.05;;;20.20;99.90;;;;;;4987951;28;20045;-84
2023/07/16 00:41:29;;;;;;;11.13;5.97;;;20.10;99.90;;;;;;4988931;28;20161;-84
2023/07/16 00:43:55;;;;;;;10.05;6.88;;;20.10;99.90;;;;;;4989341;28;20511;-83
2023/07/16 00:46:21;;;;;;;14.43;6.13;;;20.10;99.90;;;;;;4987145;28;20503;-84
2023/07/16 00:48:47;;;;;;;9.48;6.05;;;20.10;99.90;;;;;;4988122;28;20049;-84
2023/07/16 00:51:14;;;;;;;12.68;6.78;;;20.10;99.90;;;;;;4987194;28;20042;-84
2023/07/16 00:53:41;;;;;;;12.07;6.55;;;20.10;99.90;;;;;;4987394;28;20096;-84
2023/07/16 00:56:08;;;;;;;13.50;6.50;;;20.10;99.90;;;;;;4987641;28;20657;-83
2023/07/16 00:58:34;;;;;;;9.52;6.50;;;20.10;99.90;;;;;;4988053;28;20056;-84
2023/07/16 01:00:59;;;;;;;9.80;6.65;;;20.10;99.90;;;;;;4986467;28;20034;-84
2023/07/16 01:03:25;;;;;;;11.80;7.00;;;20.10;99.90;;;;;;4988314;28;20038;-83
2023/07/16 01:05:50;;;;;;;8.60;6.35;;;20.10;99.90;;;;;;4990385;28;20073;-84
2023/07/16 01:08:26;;;;;;;12.75;6.32;;;20.10;99.90;;;;;;4992855;28;20026;-84
2023/07/16 01:10:52;;;;;;;12.90;6.38;;;20.10;99.90;;;;;;4990366;28;20034;-84
2023/07/16 01:13:18;;;;;;;10.57;6.65;;;20.10;99.90;;;;;;4990079;28;20040;-84
2023/07/16 01:15:43;;;;;;;10.90;7.63;;;20.10;99.90;;;;;;4990827;28;20062;-84
2023/07/16 01:18:09;;;;;;;9.68;6.65;;;20.10;99.90;;;;;;4990520;28;20493;-84
2023/07/16 01:20:34;;;;;;;15.10;7.38;;;20.10;99.90;;;;;;4991273;28;20054;-84
2023/07/16 01:23:26;;;;;;;11.30;6.78;;;20.00;99.90;;;;;;4990809;28;20049;-83
2023/07/16 01:26:24;;;;;;;9.07;6.45;;;20.00;99.90;;;;;;4990195;28;20125;-84
2023/07/16 01:29:09;;;;;;;10.00;6.90;;;20.00;99.90;;;;;;4992770;28;20076;-84
2023/07/16 01:31:35;;;;;;;10.15;7.18;;;20.00;99.90;;;;;;4991213;28;20030;-84
2023/07/16 01:34:01;;;;;;;15.15;6.70;;;20.00;99.90;;;;;;4991796;28;20042;-83
2023/07/16 01:36:28;;;;;;;14.52;7.25;;;20.00;99.90;;;;;;4990823;28;20022;-83
2023/07/16 01:38:53;;;;;;;12.90;7.30;;;20.00;99.90;;;;;;4988862;28;20038;-84
2023/07/16 01:41:19;;;;;;;11.75;6.70;;;20.00;99.90;;;;;;4992368;28;20420;-83
2023/07/16 01:43:44;;;;;;;13.60;7.32;;;20.00;99.90;;;;;;4990206;28;20121;-83
2023/07/16 01:46:10;;;;;;;9.07;6.43;;;20.00;99.90;;;;;;4990504;28;20034;-83
2023/07/16 01:48:37;;;;;;;12.50;7.05;;;20.00;99.90;;;;;;4991323;28;20073;-84
2023/07/16 01:51:03;;;;;;;10.27;7.05;;;20.00;99.90;;;;;;4993243;28;20062;-83
2023/07/16 01:53:29;;;;;;;14.32;7.15;;;20.00;99.90;;;;;;4993825;28;20040;-83
2023/07/16 01:55:55;;;;;;;10.75;6.97;;;20.00;99.90;;;;;;5004223;28;20415;-84
2023/07/16 01:58:20;;;;;;;10.00;7.03;;;20.00;99.90;;;;;;4991734;28;20130;-83
2023/07/16 02:00:48;;;;;;;10.07;6.93;;;20.00;99.90;;;;;;4992385;28;20088;-83
2023/07/16 02:03:13;;;;;;;12.15;6.93;;;20.00;99.90;;;;;;4993473;28;20031;-83
2023/07/16 02:05:39;;;;;;;10.43;6.65;;;20.10;99.90;;;;;;4991925;28;20034;-83
2023/07/16 02:08:04;;;;;;;11.30;6.57;;;20.10;99.90;;;;;;4992124;28;21333;-83
2023/07/16 02:10:30;;;;;;;15.55;6.40;;;20.10;99.90;;;;;;4990314;28;20065;-83
2023/07/16 02:12:56;;;;;;;10.35;6.10;;;20.10;99.90;;;;;;4989044;28;20113;-83
2023/07/16 02:15:22;;;;;;;12.85;6.63;;;20.10;99.90;;;;;;4991773;28;20037;-83
2023/07/16 02:17:47;;;;;;;13.80;6.32;;;20.10;99.90;;;;;;4991516;28;20040;-83
2023/07/16 02:20:13;;;;;;;11.52;6.50;;;20.10;99.90;;;;;;4990064;28;20029;-83
2023/07/16 02:22:39;;;;;;;11.68;6.85;;;20.10;99.90;;;;;;4990333;28;20178;-83
2023/07/16 02:25:05;;;;;;;11.70;6.88;;;20.10;99.90;;;;;;4990415;28;20049;-84
2023/07/16 02:27:31;;;;;;;10.98;7.13;;;20.10;99.90;;;;;;4991318;28;20031;-83
2023/07/16 02:29:57;;;;;;;10.38;6.55;;;20.10;99.90;;;;;;4989947;28;20034;-83
2023/07/16 02:32:23;;;;;;;11.93;6.78;;;20.10;99.90;;;;;;4990921;28;20049;-83
2023/07/16 02:34:48;;;;;;;10.80;6.50;;;20.00;99.90;;;;;;4990948;28;20029;-83
2023/07/16 02:37:14;;;;;;;9.38;6.00;;;20.10;99.90;;;;;;4991370;28;20038;-83
2023/07/16 02:39:45;;;;;;;9.65;5.50;;;20.10;99.90;;;;;;4992235;28;20033;-83
2023/07/16 02:42:10;;;;;;;12.15;5.82;;;20.10;99.90;;;;;;4990450;28;20060;-83
2023/07/16 02:44:43;;;;;;;6.40;4.55;;;20.10;99.90;;;;;;4991230;28;20452;-83
2023/07/16 02:47:09;;;;;;;8.43;4.85;;;20.10;99.90;;;;;;4990170;28;20038;-84
2023/07/16 02:49:34;;;;;;;8.27;4.88;;;20.10;99.90;;;;;;4992702;28;20037;-84
2023/07/16 02:52:00;;;;;;;6.00;4.70;;;20.10;99.90;;;;;;4990606;28;20076;-83
2023/07/16 02:54:25;;;;;;;6.45;5.07;;;20.20;99.90;;;;;;4991475;28;21437;-84
2023/07/16 02:56:51;;;;;;;9.95;5.18;;;20.10;99.90;;;;;;4989985;28;20518;-83
2023/07/16 02:59:16;;;;;;;5.55;4.53;;;20.20;99.90;;;;;;4991582;28;20030;-83
2023/07/16 03:01:43;;;;;;;8.05;5.40;;;20.20;99.90;;;;;;4990798;28;20038;-83
2023/07/16 03:04:09;;;;;;;9.98;5.07;;;20.20;99.90;;;;;;4991036;28;20101;-83
2023/07/16 03:06:34;;;;;;;6.25;4.97;;;20.10;99.90;;;;;;4989509;28;20131;-84
2023/07/16 03:08:59;;;;;;;10.73;5.18;;;20.10;99.90;;;;;;4990437;28;20038;-83
2023/07/16 03:11:25;;;;;;;7.75;4.60;;;20.10;99.90;;;;;;4989833;28;20035;-83
2023/07/16 03:13:51;;;;;;;10.23;4.75;;;20.20;99.90;;;;;;4992591;28;20046;-83
2023/07/16 03:16:16;;;;;;;6.80;4.00;;;20.10;99.90;;;;;;4989892;28;20022;-83
2023/07/16 03:18:42;;;;;;;6.90;4.10;;;20.10;99.90;;;;;;4990593;28;20038;-83
2023/07/16 03:21:07;;;;;;;8.68;4.70;;;20.10;99.90;;;;;;4991468;28;20504;-83
2023/07/16 03:23:33;;;;;;;6.45;4.22;;;20.10;99.90;;;;;;4990636;28;20029;-83
2023/07/16 03:25:58;;;;;;;7.00;4.07;;;20.10;99.90;;;;;;4988902;28;20493;-83
2023/07/16 03:28:24;;;;;;;5.22;3.55;;;20.10;99.90;;;;;;4989327;28;20023;-84
2023/07/16 03:30:50;;;;;;;7.05;3.90;;;20.00;99.90;;;;;;4989308;28;20033;-84
2023/07/16 03:33:17;;;;;;;5.93;3.80;;;20.00;99.90;;;;;;4990335;28;20037;-84
2023/07/16 03:35:43;;;;;;;7.05;3.95;;;20.00;99.90;;;;;;4988951;28;20113;-83
2023/07/16 03:38:10;;;;;;;5.78;3.67;;;20.00;99.90;;;;;;4989266;28;20064;-84
2023/07/16 03:40:36;;;;;;;8.68;4.03;;;20.00;99.90;;;;;;4990731;28;20031;-83
2023/07/16 03:43:01;;;;;;;5.78;3.97;;;20.00;99.90;;;;;;4989962;28;20030;-84
2023/07/16 03:45:27;;;;;;;6.63;3.78;;;20.10;99.90;;;;;;4990098;28;20061;-83
2023/07/16 03:47:53;;;;;;;8.40;4.22;;;20.10;99.90;;;;;;4989191;28;20089;-83
2023/07/16 03:50:18;;;;;;;7.68;3.65;;;20.10;99.90;;;;;;4988925;28;20036;-83
2023/07/16 03:52:44;;;;;;;7.25;3.80;;;20.10;99.90;;;;;;4987433;28;20049;-83
2023/07/16 03:55:10;;;;;;;4.30;3.47;;;20.00;99.90;;;;;;4989915;28;20038;-83
2023/07/16 03:57:35;;;;;;;4.53;3.25;;;20.00;99.90;;;;;;4987573;28;20485;-83
2023/07/16 04:00:09;;;;;;;6.55;2.67;;;20.10;99.90;;;;;;4990415;28;20053;-84
2023/07/16 04:02:35;;;;;;;3.72;3.05;;;20.00;99.90;;;;;;4989477;28;20111;-84
2023/07/16 04:05:00;;;;;;;2.85;2.55;;;20.00;99.90;;;;;;4991183;28;20066;-83
2023/07/16 04:07:26;;;;;;;4.85;2.78;;;19.90;99.90;;;;;;4991545;28;20034;-83
2023/07/16 04:09:52;;;;;;;6.07;2.70;;;19.90;99.90;;;;;;4990507;28;20033;-83
2023/07/16 04:12:17;;;;;;;7.30;3.45;;;20.00;99.90;;;;;;4990130;28;20038;-83
2023/07/16 04:14:43;;;;;;;7.65;3.25;;;19.90;99.90;;;;;;4988980;28;20134;-83
2023/07/16 04:17:08;;;;;;;6.63;3.20;;;19.90;99.90;;;;;;4991207;28;20026;-82
2023/07/16 04:19:34;;;;;;;6.10;3.08;;;19.90;99.90;;;;;;4990835;28;20026;-83
2023/07/16 04:22:00;;;;;;;10.32;3.55;;;19.80;99.90;;;;;;4991095;28;20081;-83
2023/07/16 04:24:26;;;;;;;8.25;3.38;;;19.70;99.90;;;;;;4988735;28;20058;-83
2023/07/16 04:26:53;;;;;;;6.88;2.72;;;19.70;99.90;;;;;;4990167;28;20050;-83
2023/07/16 04:29:18;;;;;;;7.18;3.08;;;19.70;99.90;;;;;;4989907;28;20034;-83
2023/07/16 04:31:44;;;;;;;3.58;2.88;;;19.70;99.90;;;;;;4990590;28;20034;-83
2023/07/16 04:34:09;;;;;;;3.33;2.53;;;19.60;99.90;;;;;;4990243;28;20038;-83
2023/07/16 04:36:35;;;;;;;5.25;3.03;;;19.60;99.90;;;;;;4991288;28;20033;-83
2023/07/16 04:39:01;;;;;;;5.72;3.13;;;19.60;99.90;;;;;;4990162;28;20473;-84
2023/07/16 04:41:27;;;;;;;5.90;2.65;;;19.60;99.90;;;;;;4994136;28;20031;-84
2023/07/16 04:43:52;;;;;;;4.53;2.90;;;19.60;99.90;;;;;;4992963;28;20044;-84
2023/07/16 04:46:18;;;;;;;4.78;2.72;;;19.70;99.90;;;;;;4990953;28;20404;-84
2023/07/16 04:48:43;;;;;;;5.47;3.63;;;19.70;99.90;;;;;;4993766;28;20057;-84
2023/07/16 04:51:09;;;;;;;6.40;3.00;;;19.70;99.90;;;;;;4991868;28;20046;-81
2023/07/16 04:53:34;;;;;;;5.95;2.97;;;19.60;99.90;;;;;;4996740;28;20042;-80
2023/07/16 04:56:00;;;;;;;4.88;3.20;;;19.60;99.90;;;;;;4994719;28;20027;-80
2023/07/16 04:58:26;;;;;;;6.70;3.55;;;19.60;99.90;;;;;;4993686;28;21373;-79
2023/07/16 05:00:51;;;;;;;4.60;3.53;;;19.60;99.90;;;;;;4995305;28;20034;-80
2023/07/16 05:03:17;;;;;;;7.70;3.25;;;19.60;99.90;;;;;;4993279;28;20037;-80
2023/07/16 05:05:42;;;;;;;7.80;3.67;;;19.50;99.90;;;;;;4993381;28;20050;-79
2023/07/16 05:08:08;;;;;;;4.75;3.50;;;19.50;99.90;;;;;;4994942;28;20030;-80
2023/07/16 05:10:33;;;;;;;6.13;3.70;;;19.50;99.90;;;;;;4994116;28;20026;-79
2023/07/16 05:12:59;;;;;;;6.88;3.53;;;19.60;99.90;;;;;;4996408;28;20455;-80
2023/07/16 05:15:24;;;;;;;9.90;3.97;;;19.60;99.90;;;;;;4993161;28;20049;-80
2023/07/16 05:17:50;;;;;;;7.80;3.72;;;19.70;99.90;;;;;;4993477;28;20030;-80
2023/07/16 05:20:16;;;;;;;6.50;3.70;;;19.70;99.90;;;;;;4991645;28;20038;-80
2023/07/16 05:22:41;;;;;;;6.38;3.55;;;19.70;99.90;;;;;;4993232;28;20476;-80
2023/07/16 05:25:07;;;;;;;7.38;3.15;;;19.70;99.90;;;;;;4992614;28;20030;-79
2023/07/16 05:27:33;;;;;;;7.68;3.90;;;19.70;99.90;;;;;;4994564;28;20888;-79
2023/07/16 05:29:58;;;;;;;6.50;3.33;;;19.70;99.90;;;;;;4992333;28;20042;-80
2023/07/16 05:32:24;;;;;;;5.60;3.63;;;19.80;99.90;;;;;;4992405;28;20125;-80
2023/07/16 05:34:49;;;;;;;6.20;3.50;;;19.80;99.90;;;;;;4993433;28;20114;-80
2023/07/16 05:37:15;;;;;;;8.77;3.40;;;19.90;99.90;;;;;;4993278;28;20041;-81
2023/07/16 05:39:40;;;;;;;8.02;3.50;;;19.90;99.90;;;;;;4993018;28;20038;-80
2023/07/16 05:42:06;;;;;;;8.60;3.17;;;20.00;99.90;;;;;;4992864;28;20026;-79
2023/07/16 05:44:32;;;;;;;8.07;3.35;;;20.00;99.90;;;;;;4991824;28;20030;-78
2023/07/16 05:46:57;;;;;;;12.10;3.38;;;20.10;99.90;;;;;;4989677;28;20038;-82
2023/07/16 05:49:24;;;;;;;7.18;3.28;;;20.10;99.90;;;;;;4988262;28;20041;-79
2023/07/16 05:51:49;;;;;;;6.18;3.22;;;20.20;99.90;;;;;;4980679;28;20036;-76
2023/07/16 05:54:15;;;;;;;7.22;3.40;;;20.20;99.90;;;;;;4985943;28;20046;-77
2023/07/16 05:56:40;;;;;;;5.75;3.17;;;20.30;99.90;;;;;;4980335;28;20021;-77
2023/07/16 05:59:06;;;;;;;10.65;3.35;;;20.40;99.90;;;;;;4983484;28;20050;-76
2023/07/16 06:01:31;;;;;;;5.97;3.33;;;20.50;99.90;;;;;;4984433;28;20034;-77
2023/07/16 06:03:57;;;;;;;6.20;3.30;;;20.50;99.90;;;;;;4981737;28;20068;-76
2023/07/16 06:06:23;;;;;;;4.45;3.25;;;20.60;99.90;;;;;;4983343;28;20045;-77
2023/07/16 06:08:48;;;;;;;6.72;3.10;;;20.70;99.90;;;;;;4984315;28;20096;-77
2023/07/16 06:11:14;;;;;;;5.60;3.42;;;20.80;99.90;;;;;;4981132;28;20053;-76
2023/07/16 06:13:40;;;;;;;7.80;3.33;;;20.80;99.90;;;;;;4983539;28;20129;-76
2023/07/16 06:16:05;;;;;;;4.45;3.20;;;20.90;99.90;;;;;;4982167;28;20034;-77
2023/07/16 06:18:31;;;;;;;4.05;3.17;;;21.00;99.90;;;;;;4983250;28;20026;-76
2023/07/16 06:20:56;;;;;;;5.35;2.78;;;21.00;99.90;;;;;;4983923;28;20148;-76
2023/07/16 06:23:22;;;;;;;3.83;2.72;;;21.10;99.90;;;;;;4980686;28;20027;-76
2023/07/16 06:25:48;;;;;;;3.70;2.50;;;21.00;99.90;;;;;;4981044;28;22284;-77
2023/07/16 06:28:14;;;;;;;5.18;2.85;;;21.00;99.90;;;;;;4982255;28;20038;-76
2023/07/16 06:30:40;;;;;;;6.25;2.90;;;20.90;99.90;;;;;;4980737;28;20101;-77
2023/07/16 06:33:06;;;;;;;7.43;2.92;;;20.90;99.90;;;;;;4983949;28;20034;-76
2023/07/16 06:35:32;;;;;;;4.15;2.70;;;20.90;99.90;;;;;;4982319;28;20723;-76
2023/07/16 06:37:57;;;;;;;5.95;2.80;;;20.90;99.90;;;;;;4980372;28;20574;-84
2023/07/16 06:40:24;;;;;;;3.28;2.47;;;20.90;99.90;;;;;;4984294;28;20038;-76
2023/07/16 06:42:50;;;;;;;5.40;3.03;;;20.90;99.90;;;;;;4985957;28;21486;-82
2023/07/16 06:45:17;;;;;;;4.22;2.88;;;20.90;99.90;;;;;;4984152;28;20041;-76
2023/07/16 06:47:43;;;;;;;3.83;2.65;;;21.00;99.90;;;;;;4979225;28;20053;-76
2023/07/16 06:50:09;;;;;;;4.82;2.58;;;21.00;99.90;;;;;;4982241;28;20753;-76
2023/07/16 06:52:34;;;;;;;3.40;2.53;;;21.10;99.90;;;;;;4983581;28;20066;-76
2023/07/16 06:54:59;;;;;;;2.60;1.83;;;21.20;99.90;;;;;;4983173;28;22545;-76
2023/07/16 06:57:25;;;;;;;3.00;2.17;;;21.20;99.90;;;;;;4981957;28;20049;-76
2023/07/16 06:59:51;;;;;;;3.45;2.03;;;21.30;99.90;;;;;;4983661;28;20161;-76
2023/07/16 07:02:17;;;;;;;3.83;1.90;;;21.30;99.90;;;;;;4976302;28;20038;-76
2023/07/16 07:04:43;;;;;;;2.75;1.92;;;21.30;99.90;;;;;;4979572;28;20154;-76
2023/07/16 07:07:09;;;;;;;5.45;2.35;;;21.30;99.90;;;;;;4981468;28;20026;-76
2023/07/16 07:09:34;;;;;;;3.22;2.22;;;21.30;99.90;;;;;;4984319;28;20196;-83
2023/07/16 07:12:00;;;;;;;2.20;1.70;;;21.30;99.90;;;;;;4987818;28;21624;-84
2023/07/16 07:14:25;;;;;;;2.60;1.98;;;21.30;99.90;;;;;;4987715;28;20043;-84
2023/07/16 07:16:51;;;;;;;2.40;1.80;;;21.30;99.90;;;;;;4985101;28;20026;-88
2023/07/16 07:19:16;;;;;;;2.97;2.08;;;21.20;99.90;;;;;;4984440;28;20035;-82
2023/07/16 07:21:42;;;;;;;2.92;2.10;;;21.20;99.90;;;;;;4987594;28;20053;-83
2023/07/16 07:24:07;;;;;;;3.40;2.03;;;21.20;99.90;;;;;;4987459;28;20038;-83
2023/07/16 07:26:33;;;;;;;2.67;2.10;;;21.20;99.90;;;;;;4985128;28;20046;-83
2023/07/16 07:28:58;;;;;;;2.92;2.10;;;21.20;99.90;;;;;;4983757;28;20100;-82
2023/07/16 07:31:24;;;;;;;3.50;1.90;;;21.30;99.90;;;;;;4984669;28;20097;-85
2023/07/16 07:33:49;;;;;;;3.55;1.85;;;21.40;99.90;;;;;;4981882;28;20116;-84
2023/07/16 07:36:15;;;;;;;2.92;1.75;;;21.40;99.90;;;;;;4980243;28;20220;-87
2023/07/16 07:38:40;;;;;;;3.13;1.80;;;21.50;99.90;;;;;;4986316;28;20037;-83
2023/07/16 07:41:06;;;;;;;3.97;1.83;;;21.60;99.90;;;;;;4986428;28;20101;-88
2023/07/16 07:43:32;;;;;;;4.00;1.90;;;21.70;99.90;;;;;;4989181;28;20164;-82
2023/07/16 07:45:57;;;;;;;3.15;2.05;;;21.90;99.90;;;;;;4986899;28;20935;-85
2023/07/16 07:48:23;;;;;;;3.10;1.90;;;22.00;99.90;;;;;;4986346;28;20033;-82
2023/07/16 07:50:49;;;;;;;3.55;2.08;;;22.00;99.90;;;;;;4988964;28;20820;-84
2023/07/16 07:53:15;;;;;;;3.15;1.70;;;22.00;99.90;;;;;;4988102;28;20037;-82
2023/07/16 07:55:40;;;;;;;2.50;1.80;;;22.10;99.90;;;;;;4987422;28;20102;-82
2023/07/16 07:58:07;;;;;;;3.03;2.17;;;22.00;99.90;;;;;;4985625;28;20053;-84
2023/07/16 08:00:33;;;;;;;4.07;1.85;;;22.10;99.90;;;;;;4987423;28;20026;-82
2023/07/16 08:02:59;;;;;;;3.70;2.00;;;22.10;99.90;;;;;;4982163;28;20038;-82
2023/07/16 08:05:24;;;;;;;2.97;1.95;;;22.00;99.90;;;;;;4987777;28;20025;-82
2023/07/16 08:07:50;;;;;;;2.30;1.75;;;22.10;99.90;;;;;;4988427;28;20098;-82
2023/07/16 08:10:15;;;;;;;2.50;1.90;;;22.20;99.90;;;;;;4987856;28;21633;-83
2023/07/16 08:12:41;;;;;;;3.10;1.80;;;22.30;99.90;;;;;;4987037;28;20440;-82
2023/07/16 08:15:09;;;;;;;3.08;1.83;;;22.30;99.90;;;;;;4985816;28;20038;-82
2023/07/16 08:17:34;;;;;;;2.33;1.83;;;22.40;99.90;;;;;;4986821;28;20034;-82
2023/07/16 08:20:00;;;;;;;2.15;1.60;;;22.60;99.90;;;;;;4986646;28;20018;-82
2023/07/16 08:22:26;;;;;;;2.55;1.73;;;22.80;99.90;;;;;;4985739;28;20050;-82
2023/07/16 08:24:52;;;;;;;5.32;1.92;;;23.00;99.90;;;;;;4981732;28;20030;-82
2023/07/16 08:27:18;;;;;;;2.47;1.60;;;23.30;99.90;;;;;;4984496;28;20930;-78
2023/07/16 08:29:44;;;;;;;2.83;1.85;;;23.50;99.90;;;;;;4986659;28;20712;-84
2023/07/16 08:32:09;;;;;;;4.57;2.30;;;23.60;99.90;;;;;;4987377;28;20034;-82
2023/07/16 08:34:35;;;;;;;3.08;1.90;;;23.70;99.90;;;;;;4987116;28;22318;-82
2023/07/16 08:37:00;;;;;;;2.88;1.75;;;23.80;99.90;;;;;;4983376;28;20046;-85
2023/07/16 08:39:26;;;;;;;2.45;1.50;;;23.90;99.90;;;;;;4981591;28;20797;-83
2023/07/16 08:41:51;;;;;;;2.40;1.40;;;24.00;99.90;;;;;;4984094;28;20041;-83
2023/07/16 08:44:17;;;;;;;3.97;1.60;;;24.00;99.90;;;;;;4981452;28;20038;-82
2023/07/16 08:46:43;;;;;;;2.25;1.55;;;24.10;99.90;;;;;;4984366;28;20397;-81
2023/07/16 08:49:10;;;;;;;2.92;1.55;;;24.10;99.90;;;;;;4984765;28;20115;-81
2023/07/16 08:51:37;;;;;;;2.95;1.70;;;24.10;99.90;;;;;;4984772;28;20113;-83
2023/07/16 08:54:03;;;;;;;4.07;1.70;;;24.20;99.90;;;;;;4981689;28;20712;-83
2023/07/16 08:56:29;;;;;;;2.42;1.50;;;24.20;99.90;;;;;;4977878;28;20027;-82
2023/07/16 08:58:58;;;;;;;1.83;1.55;;;24.40;99.90;;;;;;4986038;28;20059;-83
2023/07/16 09:01:24;;;;;;;3.47;1.60;;;24.50;99.90;;;;;;4982964;28;20085;-83
2023/07/16 09:03:49;;;;;;;1.90;1.58;;;24.60;99.90;;;;;;4984469;28;20429;-83
2023/07/16 09:06:15;;;;;;;2.70;1.50;;;24.50;99.90;;;;;;4982438;28;20052;-82
2023/07/16 09:08:41;;;;;;;2.03;1.52;;;24.50;99.90;;;;;;4984426;28;20175;-83
2023/07/16 09:11:12;;;;;;;2.88;1.60;;;24.70;99.90;;;;;;4986386;28;20038;-82
2023/07/16 09:13:38;;;;;;;2.28;1.67;;;24.90;99.90;;;;;;4982661;28;20034;-81
2023/07/16 09:16:03;;;;;;;2.53;1.80;;;24.90;99.90;;;;;;4981438;28;20036;-83
2023/07/16 09:18:29;;;;;;;4.18;1.48;;;25.00;99.90;;;;;;4974805;28;20026;-82
2023/07/16 09:21:00;;;;;;;2.90;1.42;;;25.00;99.90;;;;;;4977198;28;20392;-84
2023/07/16 09:23:26;;;;;;;1.83;1.60;;;25.20;99.90;;;;;;4975796;28;20058;-82
2023/07/16 09:25:56;;;;;;;2.58;1.55;;;25.30;99.90;;;;;;4974437;28;20037;-82
2023/07/16 09:28:22;;;;;;;2.30;1.70;;;25.00;99.90;;;;;;4979931;28;20126;-82
2023/07/16 09:30:48;;;;;;;3.42;1.50;;;25.00;99.90;;;;;;4979020;28;20034;-82
2023/07/16 09:33:22;;;;;;;2.53;1.75;;;24.70;99.90;;;;;;4979557;28;20038;-82
2023/07/16 09:35:49;;;;;;;4.28;1.75;;;24.70;99.90;;;;;;4979809;28;20115;-82
2023/07/16 09:38:15;;;;;;;1.75;1.40;;;24.80;99.90;;;;;;4979635;28;20157;-82
2023/07/16 09:40:42;;;;;;;2.85;1.85;;;24.90;99.90;;;;;;4980713;28;20053;-81
2023/07/16 09:43:08;;;;;;;4.93;1.50;;;25.00;99.90;;;;;;4979119;28;20031;-81
2023/07/16 09:45:34;;;;;;;2.55;1.67;;;25.10;99.90;;;;;;4975861;28;20074;-82
2023/07/16 09:48:00;;;;;;;1.80;1.40;;;25.20;99.90;;;;;;4978133;28;20038;-83
2023/07/16 09:50:31;;;;;;;1.67;1.42;;;25.30;99.90;;;;;;4980335;28;20034;-82
2023/07/16 09:52:57;;;;;;;2.60;1.52;;;25.50;99.90;;;;;;4979666;28;20864;-82
2023/07/16 09:55:24;;;;;;;2.15;1.60;;;25.50;99.90;;;;;;4980702;28;20027;-83
2023/07/16 09:57:54;;;;;;;2.90;1.85;;;25.30;99.90;;;;;;4978039;28;20034;-81
2023/07/16 10:00:22;;;;;;;3.08;1.92;;;25.10;99.90;;;;;;4979694;28;20835;-83
2023/07/16 10:02:48;;;;;;;2.55;1.77;;;25.10;99.90;;;;;;4978784;28;20034;-81
2023/07/16 10:05:18;;;;;;;3.13;1.70;;;25.00;99.90;;;;;;4977396;28;20044;-82
2023/07/16 10:07:51;;;;;;;3.92;1.60;;;25.00;99.90;;;;;;4975348;28;20031;-81
2023/07/16 10:10:17;;;;;;;3.42;1.60;;;25.00;99.90;;;;;;4980243;28;20049;-83
2023/07/16 10:12:53;;;;;;;2.58;1.60;;;25.00;99.90;;;;;;4981549;28;20054;-81
2023/07/16 10:15:26;;;;;;;31.27;3.35;;;24.90;99.90;;;;;;4985913;28;20045;-81
2023/07/16 10:17:51;;;;;;;2.80;1.70;;;24.90;99.90;;;;;;4978370;28;20045;-76
2023/07/16 10:20:17;;;;;;;12.40;1.90;;;24.90;99.90;;;;;;4984082;28;20050;-76
2023/07/16 10:22:46;;;;;;;4.25;1.70;;;24.90;99.90;;;;;;4981916;28;20041;-81
2023/07/16 10:25:18;;;;;;;19.45;2.67;;;25.00;99.90;;;;;;4987299;28;20513;-83
2023/07/16 10:27:48;;;;;;;3.63;1.65;;;25.00;99.90;;;;;;4988740;28;20034;-83
2023/07/16 10:30:14;;;;;;;5.88;1.80;;;25.00;99.90;;;;;;4987333;28;20038;-81
2023/07/16 10:32:40;;;;;;;9.85;1.40;;;25.00;99.90;;;;;;4984818;28;20039;-81
2023/07/16 10:35:08;;;;;;;2.20;1.50;;;25.00;99.90;;;;;;4985184;28;20030;-84
2023/07/16 10:37:34;;;;;;;3.35;1.75;;;25.10;99.90;;;;;;4988892;28;20393;-84
2023/07/16 10:40:03;;;;;;;7.28;1.80;;;25.20;99.90;;;;;;4990300;28;20030;-83
2023/07/16 10:42:28;;;;;;;3.45;1.80;;;25.20;99.90;;;;;;4987153;28;20061;-84
2023/07/16 10:44:57;;;;;;;2.70;1.58;;;25.40;99.90;;;;;;4988882;28;20061;-83
2023/07/16 10:47:37;;;;;;;1.92;1.52;;;25.50;99.90;;;;;;4984844;28;20034;-84
2023/07/16 10:50:08;;;;;;;3.33;1.52;;;25.60;99.90;;;;;;4984523;28;20128;-83
2023/07/16 10:52:34;;;;;;;2.40;1.60;;;25.70;99.90;;;;;;4987022;28;20026;-83
2023/07/16 10:55:00;;;;;;;2.22;1.65;;;26.00;99.90;;;;;;4987499;28;20224;-84
2023/07/16 10:57:27;;;;;;;2.20;1.67;;;26.60;99.90;;;;;;4985878;28;20880;-84
2023/07/16 10:59:54;;;;;;;2.17;1.60;;;26.90;99.90;;;;;;4987158;28;20080;-83
2023/07/16 11:02:21;;;;;;;3.47;1.77;;;27.10;99.90;;;;;;4986833;28;20069;-85
2023/07/16 11:04:48;;;;;;;3.15;1.80;;;27.20;99.90;;;;;;4985688;28;20037;-84
2023/07/16 11:07:14;;;;;;;3.58;1.85;;;27.50;99.90;;;;;;4983938;28;20034;-83
2023/07/16 11:09:53;;;;;;;4.05;1.52;;;27.70;99.90;;;;;;4986421;28;20034;-84
2023/07/16 11:12:21;;;;;;;3.30;1.65;;;27.80;99.90;;;;;;4984753;28;20042;-84
2023/07/16 11:14:49;;;;;;;4.70;1.80;;;27.70;99.90;;;;;;4974203;28;20049;-85
2023/07/16 11:17:15;;;;;;;2.10;1.65;;;27.50;99.90;;;;;;4971148;28;20392;-85
2023/07/16 11:19:44;;;;;;;2.60;1.80;;;27.20;99.90;;;;;;4976096;28;20026;-85
2023/07/16 11:22:10;;;;;;;3.38;1.88;;;27.10;99.90;;;;;;4979339;28;20038;-83
2023/07/16 11:24:42;;;;;;;4.53;1.70;;;26.90;99.90;;;;;;4977540;28;20038;-84
2023/07/16 11:27:27;;;;;;;2.50;1.98;;;26.90;99.90;;;;;;4979384;28;20065;-85
2023/07/16 11:29:57;;;;;;;2.42;1.75;;;26.70;99.90;;;;;;4978922;28;20030;-85
2023/07/16 11:32:43;;;;;;;3.47;1.70;;;26.60;99.90;;;;;;4980421;28;20034;-84
2023/07/16 11:35:11;;;;;;;2.30;1.60;;;26.70;99.90;;;;;;4979531;28;20038;-83
2023/07/16 11:37:37;;;;;;;2.38;1.75;;;26.80;99.90;;;;;;4979410;28;20054;-85
2023/07/16 11:40:05;;;;;;;2.10;1.70;;;26.80;99.90;;;;;;4989274;28;20028;-84
2023/07/16 11:42:36;;;;;;;3.60;2.13;;;26.70;99.90;;;;;;4988316;28;20030;-84
2023/07/16 11:45:03;;;;;;;2.00;1.52;;;26.70;99.90;;;;;;4985749;28;20033;-75
2023/07/16 11:47:29;;;;;;;3.10;1.85;;;26.70;99.90;;;;;;4981421;28;20037;-76
2023/07/16 11:49:55;;;;;;;2.20;1.55;;;27.10;99.90;;;;;;4986232;28;20030;-85
2023/07/16 11:52:22;;;;;;;2.45;1.45;;;27.50;99.90;;;;;;4986932;28;20034;-82
2023/07/16 11:54:48;;;;;;;4.15;1.85;;;27.70;99.90;;;;;;4987665;28;20790;-83
2023/07/16 11:57:14;;;;;;;2.85;1.83;;;28.00;99.90;;;;;;4985087;28;20137;-84
2023/07/16 11:59:39;;;;;;;2.58;1.75;;;28.30;99.90;;;;;;4984704;28;20030;-83
2023/07/16 12:02:05;;;;;;;4.60;2.00;;;28.40;99.90;;;;;;4985359;28;20026;-83
2023/07/16 12:04:31;;;;;;;3.22;1.92;;;28.70;99.90;;;;;;4985797;28;20030;-83
2023/07/16 12:06:56;;;;;;;15.75;2.70;;;28.90;99.90;;;;;;4984560;28;20041;-79
2023/07/16 12:09:22;;;;;;;2.47;1.90;;;28.80;99.90;;;;;;4979458;28;20480;-78
2023/07/16 12:11:47;;;;;;;2.83;1.88;;;28.90;99.90;;;;;;4979175;28;20022;-80
2023/07/16 12:14:13;;;;;;;3.85;2.17;;;29.20;99.90;;;;;;4978692;28;20034;-76
2023/07/16 12:16:39;;;;;;;2.67;1.83;;;29.40;99.90;;;;;;4980394;28;20561;-80
2023/07/16 12:19:08;;;;;;;2.58;1.83;;;29.30;99.90;;;;;;4980934;28;20393;-85
2023/07/16 12:21:34;;;;;;;4.03;1.83;;;29.00;99.90;;;;;;4978626;28;20036;-78
2023/07/16 12:23:59;;;;;;;4.38;2.25;;;29.00;99.90;;;;;;4979609;28;20034;-78
2023/07/16 12:26:25;;;;;;;2.78;1.77;;;28.60;99.90;;;;;;4980534;28;20034;-80
2023/07/16 12:28:50;;;;;;;3.90;1.73;;;28.20;99.90;;;;;;4981575;28;21372;-78
2023/07/16 12:31:17;;;;;;;2.50;2.00;;;28.00;99.90;;;;;;4980554;28;20026;-80
2023/07/16 12:33:43;;;;;;;3.97;1.90;;;27.80;99.90;;;;;;4980417;28;20042;-79
2023/07/16 12:36:08;;;;;;;4.40;1.98;;;27.90;99.90;;;;;;4981532;28;20030;-79
2023/07/16 12:38:34;;;;;;;4.75;2.03;;;27.80;99.90;;;;;;4983489;28;20374;-79
2023/07/16 12:40:59;;;;;;;2.53;1.60;;;27.60;99.90;;;;;;4980773;28;20500;-80